Time;durP1;ratioP1;P1;durP2;ratioP2;P2;SDS_P1;SDS_P2;PMS_P1;PMS_P2;Temp;Humidity;BMP_temperature;BMP_pressure;BME280_temperature;BME280_humidity;BME280_pressure;Samples;Min_cycle;Max_cycle;Signal;HPM_P1;HPM_P2
2023/07/19 00:01:04;;;;;;;4.00;2.05;;;16.40;99.90;;;;;;6161068;23;20027;-73
2023/07/19 00:03:31;;;;;;;5.55;2.03;;;16.40;99.90;;;;;;6161001;23;20012;-73
2023/07/19 00:05:57;;;;;;;7.82;2.60;;;16.40;99.90;;;;;;6161031;23;20053;-72
2023/07/19 00:08:22;;;;;;;4.15;2.55;;;16.40;99.90;;;;;;6161004;23;20024;-72
2023/07/19 00:10:48;;;;;;;5.35;2.50;;;16.40;99.90;;;;;;6160728;23;20017;-73
2023/07/19 00:13:14;;;;;;;4.10;2.40;;;16.30;99.90;;;;;;6161040;23;20017;-73
2023/07/19 00:15:39;;;;;;;5.20;2.40;;;16.30;99.90;;;;;;6160929;23;20032;-72
2023/07/19 00:18:05;;;;;;;8.80;2.55;;;16.30;99.90;;;;;;6160895;23;20024;-73
2023/07/19 00:20:30;;;;;;;4.47;2.40;;;16.40;99.90;;;;;;6160964;23;20021;-72
2023/07/19 00:22:56;;;;;;;7.80;2.42;;;16.40;99.90;;;;;;6187596;23;20020;-72
2023/07/19 00:25:22;;;;;;;5.72;2.60;;;16.40;99.90;;;;;;6160799;23;20044;-72
2023/07/19 00:27:49;;;;;;;7.65;2.75;;;16.40;99.90;;;;;;6187225;23;20452;-73
2023/07/19 00:30:14;;;;;;;4.57;2.67;;;16.30;99.90;;;;;;6160665;23;20449;-72
2023/07/19 00:32:41;;;;;;;7.13;2.90;;;16.30;99.90;;;;;;6187263;23;20088;-72
2023/07/19 00:35:07;;;;;;;4.72;2.95;;;16.30;99.90;;;;;;6160541;23;20110;-73
2023/07/19 00:37:33;;;;;;;5.43;2.83;;;16.20;99.90;;;;;;6160723;23;20028;-73
2023/07/19 00:39:59;;;;;;;6.13;2.60;;;16.20;99.90;;;;;;6160721;23;20029;-73
2023/07/19 00:42:24;;;;;;;5.07;2.38;;;16.30;99.90;;;;;;6160743;23;20013;-72
2023/07/19 00:44:50;;;;;;;5.80;2.75;;;16.20;99.90;;;;;;6160695;23;20440;-72
2023/07/19 00:47:16;;;;;;;6.00;2.70;;;16.30;99.90;;;;;;6160227;23;20021;-72
2023/07/19 00:49:44;;;;;;;6.57;2.85;;;16.20;99.90;;;;;;6160529;23;20427;-73
2023/07/19 00:52:10;;;;;;;6.32;2.97;;;16.20;99.90;;;;;;6187261;23;20025;-72
2023/07/19 00:54:36;;;;;;;6.72;3.05;;;16.20;99.90;;;;;;6160652;23;20020;-72
2023/07/19 00:57:03;;;;;;;5.60;2.78;;;16.20;99.90;;;;;;6160521;23;20021;-72
2023/07/19 00:59:30;;;;;;;5.18;2.42;;;16.20;99.90;;;;;;6160452;23;20017;-73
2023/07/19 01:01:55;;;;;;;5.65;2.78;;;16.20;99.90;;;;;;6160468;23;20041;-72
2023/07/19 01:04:24;;;;;;;5.43;2.58;;;16.20;99.90;;;;;;6187117;23;20028;-72
2023/07/19 01:06:50;;;;;;;4.90;2.60;;;16.30;99.90;;;;;;6160403;23;20019;-73
2023/07/19 01:09:15;;;;;;;5.72;2.35;;;16.30;99.90;;;;;;6160345;23;20041;-73
2023/07/19 01:11:41;;;;;;;6.45;2.67;;;16.20;99.90;;;;;;6160378;23;20017;-73
2023/07/19 01:14:07;;;;;;;5.03;2.42;;;16.20;99.90;;;;;;6160413;23;20028;-72
2023/07/19 01:16:34;;;;;;;5.90;2.35;;;16.20;99.90;;;;;;6160883;23;20025;-73
2023/07/19 01:18:59;;;;;;;8.10;3.00;;;16.30;99.90;;;;;;6160274;23;20356;-72
2023/07/19 01:21:25;;;;;;;9.57;2.95;;;16.20;99.90;;;;;;6186576;23;20500;-73
2023/07/19 01:23:51;;;;;;;6.30;2.55;;;16.20;99.90;;;;;;6160288;23;20051;-72
2023/07/19 01:26:17;;;;;;;5.03;2.88;;;16.20;99.90;;;;;;6186889;23;20503;-73
2023/07/19 01:28:43;;;;;;;6.80;2.97;;;16.20;99.90;;;;;;6186870;23;20040;-72
2023/07/19 01:31:11;;;;;;;4.95;2.80;;;16.20;99.90;;;;;;6159930;23;20021;-73
2023/07/19 01:33:37;;;;;;;5.15;2.55;;;16.10;99.90;;;;;;6186591;23;20031;-74
2023/07/19 01:36:03;;;;;;;5.00;2.90;;;16.20;99.90;;;;;;6159901;23;20457;-72
2023/07/19 01:38:29;;;;;;;5.25;2.80;;;16.10;99.90;;;;;;6160117;23;20156;-72
2023/07/19 01:40:54;;;;;;;3.80;2.58;;;16.20;99.90;;;;;;6160082;23;20017;-73
2023/07/19 01:43:20;;;;;;;4.97;3.00;;;16.10;99.90;;;;;;6160238;23;20017;-72
2023/07/19 01:45:46;;;;;;;4.88;2.90;;;16.10;99.90;;;;;;6186309;23;20424;-73
2023/07/19 01:48:11;;;;;;;7.78;3.10;;;16.10;99.90;;;;;;6160091;23;20445;-73
2023/07/19 01:50:37;;;;;;;5.30;2.60;;;16.10;99.90;;;;;;6186553;23;20426;-73
2023/07/19 01:53:03;;;;;;;6.15;2.35;;;16.10;99.90;;;;;;6186744;23;20024;-73
2023/07/19 01:55:28;;;;;;;4.88;2.38;;;16.00;99.90;;;;;;6159956;23;20021;-72
2023/07/19 01:57:54;;;;;;;4.03;2.58;;;16.00;99.90;;;;;;6160014;23;20452;-73
2023/07/19 02:00:20;;;;;;;7.28;3.53;;;16.00;99.90;;;;;;6159913;23;20019;-73
2023/07/19 02:02:45;;;;;;;3.92;2.50;;;16.00;99.90;;;;;;6159958;23;20021;-73
2023/07/19 02:05:11;;;;;;;5.57;2.50;;;16.00;99.90;;;;;;6186527;23;20013;-73
2023/07/19 02:07:36;;;;;;;5.50;2.80;;;16.00;99.90;;;;;;6186823;23;20032;-73
2023/07/19 02:10:03;;;;;;;4.60;2.53;;;16.00;99.90;;;;;;6159723;23;20009;-73
2023/07/19 02:12:28;;;;;;;4.63;3.20;;;16.00;99.90;;;;;;6159883;23;20028;-73
2023/07/19 02:14:54;;;;;;;5.38;3.10;;;15.90;99.90;;;;;;6186446;23;20016;-72
2023/07/19 02:17:21;;;;;;;5.30;3.20;;;15.90;99.90;;;;;;6159834;23;20021;-72
2023/07/19 02:19:47;;;;;;;5.57;3.47;;;15.90;99.90;;;;;;6159745;23;20457;-72
2023/07/19 02:22:13;;;;;;;5.70;3.35;;;15.90;99.90;;;;;;6159750;23;20021;-72
2023/07/19 02:24:38;;;;;;;7.22;3.78;;;15.90;99.90;;;;;;6186379;23;20024;-72
2023/07/19 02:27:04;;;;;;;5.07;3.53;;;15.90;99.90;;;;;;6186069;23;20021;-73
2023/07/19 02:29:30;;;;;;;6.15;4.05;;;15.90;99.90;;;;;;6159626;23;20017;-72
2023/07/19 02:31:55;;;;;;;6.57;3.53;;;15.90;99.90;;;;;;6159735;23;20020;-72
2023/07/19 02:34:21;;;;;;;6.88;3.70;;;15.90;99.90;;;;;;6159349;23;20021;-73
2023/07/19 02:36:48;;;;;;;6.60;3.72;;;15.80;99.90;;;;;;6159830;23;20349;-72
2023/07/19 02:39:14;;;;;;;7.32;3.90;;;15.90;99.90;;;;;;6186351;23;20054;-72
2023/07/19 02:41:39;;;;;;;6.38;4.22;;;15.90;99.90;;;;;;6159652;23;20068;-72
2023/07/19 02:44:05;;;;;;;6.95;4.43;;;15.80;99.90;;;;;;6159720;23;20028;-72
2023/07/19 02:46:31;;;;;;;7.60;4.47;;;15.90;99.90;;;;;;6186238;23;20021;-73
2023/07/19 02:48:56;;;;;;;7.78;5.18;;;15.90;99.90;;;;;;6186214;23;20092;-73
2023/07/19 02:51:22;;;;;;;9.02;6.10;;;15.80;99.90;;;;;;6159463;23;20336;-72
2023/07/19 02:53:51;;;;;;;11.85;7.63;;;15.90;99.90;;;;;;6186317;23;20021;-72
2023/07/19 02:56:16;;;;;;;7.70;6.05;;;16.00;99.90;;;;;;6159611;23;20021;-72
2023/07/19 02:58:42;;;;;;;9.82;6.90;;;16.00;99.90;;;;;;6159613;23;20512;-72
2023/07/19 03:01:08;;;;;;;11.55;7.75;;;16.00;99.90;;;;;;6159615;23;20349;-72
2023/07/19 03:03:33;;;;;;;21.20;8.25;;;16.00;99.90;;;;;;6159476;23;20014;-72
2023/07/19 03:06:01;;;;;;;9.10;7.47;;;16.00;99.90;;;;;;6159524;23;20025;-72
2023/07/19 03:08:27;;;;;;;10.70;7.80;;;16.00;99.90;;;;;;6159567;23;20026;-72
2023/07/19 03:10:56;;;;;;;13.13;7.55;;;16.00;99.90;;;;;;6186513;23;20013;-72
2023/07/19 03:13:21;;;;;;;12.55;7.45;;;16.00;99.90;;;;;;6161388;23;20017;-72
2023/07/19 03:15:47;;;;;;;11.50;8.20;;;16.00;99.90;;;;;;6161652;23;20028;-72
2023/07/19 03:18:13;;;;;;;12.27;8.65;;;16.00;99.90;;;;;;6161303;23;20091;-72
2023/07/19 03:20:39;;;;;;;12.75;8.95;;;16.10;99.90;;;;;;6188127;23;20504;-72
2023/07/19 03:23:05;;;;;;;14.63;9.23;;;16.10;99.90;;;;;;6161457;23;20043;-72
2023/07/19 03:25:30;;;;;;;14.52;9.20;;;16.00;99.90;;;;;;6161263;23;20500;-72
2023/07/19 03:27:56;;;;;;;12.75;9.40;;;16.00;99.90;;;;;;6161329;23;20017;-72
2023/07/19 03:30:22;;;;;;;14.95;9.77;;;16.00;99.90;;;;;;6161132;23;20017;-72
2023/07/19 03:32:48;;;;;;;15.65;10.10;;;16.00;99.90;;;;;;6187799;23;20028;-73
2023/07/19 03:35:23;;;;;;;11.48;9.10;;;16.10;99.90;;;;;;6187038;23;20018;-72
2023/07/19 03:37:49;;;;;;;13.45;9.63;;;16.00;99.90;;;;;;6159866;23;20099;-72
2023/07/19 03:40:15;;;;;;;13.10;9.70;;;16.00;99.90;;;;;;6159647;23;20021;-72
2023/07/19 03:42:41;;;;;;;14.32;10.73;;;16.00;99.90;;;;;;6161108;23;20021;-72
2023/07/19 03:45:07;;;;;;;15.05;10.20;;;16.00;99.90;;;;;;6161117;23;20032;-72
2023/07/19 03:47:34;;;;;;;14.00;10.38;;;16.00;99.90;;;;;;6161032;23;20329;-72
2023/07/19 03:49:59;;;;;;;12.35;9.98;;;16.00;99.90;;;;;;6160965;23;20028;-72
2023/07/19 03:52:25;;;;;;;12.98;10.15;;;16.00;99.90;;;;;;6161168;23;20020;-72
2023/07/19 03:54:52;;;;;;;15.45;10.55;;;16.00;99.90;;;;;;6161024;23;20079;-72
2023/07/19 03:57:17;;;;;;;13.27;9.95;;;16.00;99.90;;;;;;6161096;23;20059;-72
2023/07/19 03:59:43;;;;;;;13.35;10.98;;;16.00;99.90;;;;;;6160982;23;20342;-72
2023/07/19 04:02:09;;;;;;;15.82;10.65;;;16.00;99.90;;;;;;6160057;23;20057;-72
2023/07/19 04:04:34;;;;;;;15.48;11.07;;;16.00;99.90;;;;;;6187581;23;20013;-72
2023/07/19 04:07:00;;;;;;;13.88;10.65;;;16.00;99.90;;;;;;6160983;23;20096;-73
2023/07/19 04:09:25;;;;;;;14.43;10.73;;;16.00;99.90;;;;;;6187304;23;20449;-72
2023/07/19 04:11:51;;;;;;;13.65;10.43;;;16.00;99.90;;;;;;6187143;23;20056;-72
2023/07/19 04:14:17;;;;;;;15.18;11.07;;;16.00;99.90;;;;;;6187186;23;20025;-72
2023/07/19 04:16:44;;;;;;;15.50;10.32;;;16.00;99.90;;;;;;6161224;23;20052;-72
2023/07/19 04:19:10;;;;;;;14.82;10.60;;;16.00;99.90;;;;;;6187215;23;20028;-72
2023/07/19 04:21:35;;;;;;;13.63;9.73;;;16.00;99.90;;;;;;6160789;23;20095;-72
2023/07/19 04:24:01;;;;;;;14.52;10.27;;;16.00;99.90;;;;;;6160289;23;20036;-72
2023/07/19 04:26:27;;;;;;;12.85;10.50;;;16.00;99.90;;;;;;6160784;23;20020;-72
2023/07/19 04:28:53;;;;;;;14.85;10.73;;;16.00;99.90;;;;;;6160528;23;20025;-73
2023/07/19 04:31:19;;;;;;;15.55;10.73;;;16.00;99.90;;;;;;6160609;23;20101;-72
2023/07/19 04:33:45;;;;;;;13.82;10.70;;;16.00;99.90;;;;;;6186817;23;20017;-73
2023/07/19 04:36:15;;;;;;;14.25;10.60;;;16.00;99.90;;;;;;6160590;23;20029;-72
2023/07/19 04:38:42;;;;;;;15.35;12.00;;;16.10;99.90;;;;;;6160597;23;20075;-72
2023/07/19 04:41:08;;;;;;;17.58;11.35;;;16.10;99.90;;;;;;6160557;23;20441;-72
2023/07/19 04:43:34;;;;;;;15.52;10.68;;;16.10;99.90;;;;;;6185344;23;20060;-73
2023/07/19 04:46:04;;;;;;;15.73;11.55;;;16.10;99.90;;;;;;6160472;23;20056;-73
2023/07/19 04:48:30;;;;;;;14.65;11.02;;;16.10;99.90;;;;;;6187549;23;20013;-73
2023/07/19 04:50:56;;;;;;;15.30;11.20;;;16.10;99.90;;;;;;6160406;23;20465;-73
2023/07/19 04:53:24;;;;;;;16.23;11.23;;;16.20;99.90;;;;;;6160494;23;20032;-73
2023/07/19 04:55:51;;;;;;;14.15;11.52;;;16.20;99.90;;;;;;6160357;23;20441;-73
2023/07/19 04:58:17;;;;;;;17.55;11.90;;;16.20;99.90;;;;;;6187096;23;20020;-73
2023/07/19 05:00:42;;;;;;;17.77;11.88;;;16.20;99.90;;;;;;6160448;23;20009;-72
2023/07/19 05:03:08;;;;;;;17.88;11.80;;;16.20;99.90;;;;;;6186807;23;20025;-72
2023/07/19 05:05:34;;;;;;;17.38;12.07;;;16.20;99.90;;;;;;6187152;23;20017;-72
2023/07/19 05:08:00;;;;;;;16.73;12.10;;;16.20;99.90;;;;;;6160539;23;20111;-72
2023/07/19 05:10:25;;;;;;;17.33;11.10;;;16.20;99.90;;;;;;6160288;23;20344;-73
2023/07/19 05:12:52;;;;;;;15.90;11.57;;;16.20;99.90;;;;;;6160381;23;20503;-72
2023/07/19 05:15:20;;;;;;;14.27;11.02;;;16.20;99.90;;;;;;6160432;23;20025;-72
2023/07/19 05:17:46;;;;;;;16.38;11.07;;;16.30;99.90;;;;;;6186977;23;20504;-73
2023/07/19 05:20:12;;;;;;;17.95;11.70;;;16.30;99.90;;;;;;6160254;23;20048;-72
2023/07/19 05:22:38;;;;;;;15.85;10.90;;;16.30;99.90;;;;;;6160261;23;20017;-73
2023/07/19 05:25:04;;;;;;;15.70;10.43;;;16.30;99.90;;;;;;6160233;23;20079;-72
2023/07/19 05:27:30;;;;;;;13.60;10.25;;;16.30;99.90;;;;;;6160262;23;20021;-73
2023/07/19 05:29:56;;;;;;;14.32;10.65;;;16.30;99.90;;;;;;6160160;23;20079;-73
2023/07/19 05:32:21;;;;;;;15.00;10.10;;;16.30;99.90;;;;;;6160201;23;20021;-72
2023/07/19 05:34:49;;;;;;;24.27;11.57;;;16.30;99.90;;;;;;6186229;23;20024;-73
2023/07/19 05:37:16;;;;;;;13.30;9.15;;;16.30;99.90;;;;;;6160049;23;20029;-72
2023/07/19 05:39:42;;;;;;;14.35;8.98;;;16.40;99.90;;;;;;6159906;23;20013;-72
2023/07/19 05:42:08;;;;;;;12.05;8.07;;;16.40;99.90;;;;;;6160054;23;20096;-72
2023/07/19 05:44:33;;;;;;;11.93;7.32;;;16.40;99.90;;;;;;6160115;23;20021;-72
2023/07/19 05:46:59;;;;;;;10.77;7.00;;;16.40;99.90;;;;;;6160003;23;20024;-72
2023/07/19 05:49:27;;;;;;;7.97;5.72;;;16.40;99.90;;;;;;6159944;23;20021;-72
2023/07/19 05:51:53;;;;;;;11.35;6.45;;;16.50;99.90;;;;;;6159961;23;20020;-72
2023/07/19 05:54:19;;;;;;;11.95;4.93;;;16.50;99.90;;;;;;6186565;23;20017;-72
2023/07/19 05:56:45;;;;;;;8.73;4.50;;;16.50;99.90;;;;;;6186447;23;20021;-71
2023/07/19 05:59:11;;;;;;;8.90;3.90;;;16.60;99.90;;;;;;6159887;23;20329;-71
2023/07/19 06:01:37;;;;;;;9.82;4.32;;;16.60;99.90;;;;;;6186503;23;20013;-71
2023/07/19 06:04:03;;;;;;;8.30;3.90;;;16.50;99.90;;;;;;6160010;23;20017;-72
2023/07/19 06:06:28;;;;;;;6.15;2.92;;;16.50;99.90;;;;;;6186461;23;20017;-71
2023/07/19 06:08:54;;;;;;;7.22;3.33;;;16.60;99.90;;;;;;6159734;23;20017;-71
2023/07/19 06:11:20;;;;;;;9.85;3.10;;;16.60;99.90;;;;;;6186042;23;20025;-71
2023/07/19 06:13:45;;;;;;;7.90;3.05;;;16.50;99.90;;;;;;6159882;23;20094;-71
2023/07/19 06:16:11;;;;;;;6.40;2.90;;;16.50;99.90;;;;;;6159831;23;20028;-72
2023/07/19 06:18:39;;;;;;;5.90;3.00;;;16.50;99.90;;;;;;6159686;23;20013;-71
2023/07/19 06:21:05;;;;;;;7.43;2.78;;;16.60;99.90;;;;;;6184532;23;20075;-71
2023/07/19 06:23:30;;;;;;;9.55;3.00;;;16.60;99.90;;;;;;6159767;23;20452;-72
2023/07/19 06:25:56;;;;;;;6.25;2.97;;;16.60;99.90;;;;;;6159435;23;20025;-73
2023/07/19 06:28:22;;;;;;;8.00;3.17;;;16.60;99.90;;;;;;6158453;23;20092;-70
2023/07/19 06:30:47;;;;;;;7.65;3.42;;;16.70;99.90;;;;;;6159466;23;20094;-71
2023/07/19 06:33:13;;;;;;;6.13;2.67;;;16.70;99.90;;;;;;6159341;23;20079;-73
2023/07/19 06:35:38;;;;;;;10.48;3.55;;;16.80;99.90;;;;;;6159104;23;20074;-72
2023/07/19 06:38:07;;;;;;;7.55;3.00;;;16.90;99.90;;;;;;6159893;23;20021;-72
2023/07/19 06:40:35;;;;;;;9.45;3.17;;;16.90;99.90;;;;;;6159254;23;20092;-72
2023/07/19 06:43:00;;;;;;;8.00;3.85;;;17.00;99.90;;;;;;6159398;23;20025;-71
2023/07/19 06:45:26;;;;;;;11.25;3.10;;;17.30;99.90;;;;;;6185366;23;20028;-71
2023/07/19 06:47:52;;;;;;;12.68;3.25;;;17.40;99.90;;;;;;6186011;23;20032;-71
2023/07/19 06:50:18;;;;;;;8.38;3.10;;;17.60;99.90;;;;;;6159370;23;20025;-72
2023/07/19 06:52:43;;;;;;;6.75;3.10;;;17.80;99.90;;;;;;6159195;23;20102;-71
2023/07/19 06:55:09;;;;;;;7.30;2.80;;;17.80;99.90;;;;;;6185594;23;20080;-71
2023/07/19 06:57:35;;;;;;;10.73;3.42;;;17.90;99.90;;;;;;6185970;23;20009;-71
2023/07/19 07:00:05;;;;;;;5.35;2.90;;;18.00;99.90;;;;;;6159174;23;20087;-72
2023/07/19 07:02:31;;;;;;;6.35;2.60;;;18.10;99.90;;;;;;6159328;23;20028;-72
2023/07/19 07:05:00;;;;;;;8.93;2.90;;;18.10;99.90;;;;;;6159179;23;20020;-72
2023/07/19 07:07:25;;;;;;;8.55;2.33;;;18.20;99.90;;;;;;6159264;23;20021;-71
2023/07/19 07:09:51;;;;;;;5.40;1.90;;;18.30;99.90;;;;;;6159223;23;20021;-73
2023/07/19 07:12:17;;;;;;;4.25;1.70;;;18.40;99.90;;;;;;6159123;23;20401;-72
2023/07/19 07:14:42;;;;;;;3.53;1.67;;;18.60;99.90;;;;;;6159138;23;20024;-72
2023/07/19 07:17:09;;;;;;;7.35;1.90;;;18.60;99.90;;;;;;6159234;23;20024;-73
2023/07/19 07:19:38;;;;;;;5.25;1.60;;;18.60;99.90;;;;;;6185477;23;20386;-76
2023/07/19 07:22:03;;;;;;;2.92;1.63;;;18.60;99.90;;;;;;6159045;23;20025;-72
2023/07/19 07:24:29;;;;;;;4.88;2.00;;;18.60;99.90;;;;;;6159118;23;20013;-73
2023/07/19 07:26:55;;;;;;;6.40;2.10;;;18.60;99.90;;;;;;6159209;23;20025;-73
2023/07/19 07:29:20;;;;;;;4.43;2.35;;;18.50;99.90;;;;;;6156756;23;20028;-73
2023/07/19 07:31:46;;;;;;;4.65;2.00;;;18.50;99.90;;;;;;6135087;23;20021;-74
2023/07/19 07:34:12;;;;;;;4.07;1.80;;;18.50;99.90;;;;;;6183926;23;20021;-73
2023/07/19 07:36:38;;;;;;;3.13;1.67;;;18.60;99.90;;;;;;6185493;23;20013;-73
2023/07/19 07:39:05;;;;;;;5.80;1.88;;;18.80;99.90;;;;;;6185355;23;20084;-73
2023/07/19 07:41:32;;;;;;;4.78;1.80;;;18.90;99.90;;;;;;6159030;23;20032;-73
2023/07/19 07:43:57;;;;;;;5.88;1.85;;;19.00;99.90;;;;;;6159001;23;20434;-73
2023/07/19 07:46:24;;;;;;;4.55;1.60;;;19.20;99.90;;;;;;6158799;23;20024;-75
2023/07/19 07:48:50;;;;;;;3.97;1.60;;;19.40;99.90;;;;;;6158890;23;20017;-74
2023/07/19 07:51:15;;;;;;;3.10;1.60;;;19.50;99.90;;;;;;6158688;23;20032;-74
2023/07/19 07:53:41;;;;;;;3.80;1.67;;;19.50;99.90;;;;;;6158254;23;20021;-74
2023/07/19 07:56:07;;;;;;;5.47;1.85;;;19.60;99.90;;;;;;6158863;23;20021;-72
2023/07/19 07:58:32;;;;;;;3.53;1.50;;;19.60;99.90;;;;;;6159220;23;20084;-73
2023/07/19 08:00:59;;;;;;;7.32;1.65;;;19.60;99.90;;;;;;6160575;23;20103;-73
2023/07/19 08:03:25;;;;;;;6.50;1.50;;;19.60;99.90;;;;;;6159962;23;20017;-73
2023/07/19 08:05:51;;;;;;;3.67;1.70;;;19.40;99.90;;;;;;6160675;23;20032;-73
2023/07/19 08:08:16;;;;;;;4.93;1.80;;;19.40;99.90;;;;;;6160799;23;20013;-73
2023/07/19 08:10:42;;;;;;;3.70;1.65;;;19.30;99.90;;;;;;6160607;23;20021;-72
2023/07/19 08:13:08;;;;;;;5.38;1.90;;;19.40;99.90;;;;;;6160670;23;20017;-72
2023/07/19 08:15:35;;;;;;;5.82;1.88;;;19.50;99.90;;;;;;6160628;23;20021;-72
2023/07/19 08:18:01;;;;;;;5.10;1.75;;;19.50;99.90;;;;;;6160568;23;20067;-73
2023/07/19 08:20:27;;;;;;;4.03;1.33;;;19.40;99.90;;;;;;6187165;23;20013;-72
2023/07/19 08:22:52;;;;;;;3.47;1.52;;;19.60;99.90;;;;;;6187002;23;20378;-73
2023/07/19 08:25:19;;;;;;;3.42;1.58;;;19.80;99.90;;;;;;6160619;23;20087;-72
2023/07/19 08:27:45;;;;;;;4.20;1.83;;;20.10;99.90;;;;;;6186765;23;20021;-71
2023/07/19 08:30:17;;;;;;;5.75;1.88;;;20.20;99.90;;;;;;6160420;23;20028;-72
2023/07/19 08:32:47;;;;;;;7.90;1.52;;;20.20;99.90;;;;;;6160112;23;20052;-72
2023/07/19 08:35:15;;;;;;;3.28;1.27;;;20.20;99.90;;;;;;6160196;23;20092;-73
2023/07/19 08:37:43;;;;;;;4.13;1.30;;;20.00;99.90;;;;;;6160355;23;20032;-72
2023/07/19 08:40:14;;;;;;;7.88;1.52;;;20.00;99.90;;;;;;6187080;23;20017;-73
2023/07/19 08:42:40;;;;;;;4.15;1.40;;;19.90;99.90;;;;;;6160485;23;20021;-73
2023/07/19 08:45:07;;;;;;;3.80;1.65;;;20.00;99.90;;;;;;6160319;23;20023;-73
2023/07/19 08:47:35;;;;;;;4.50;1.40;;;20.10;99.90;;;;;;6160287;23;20095;-73
2023/07/19 08:50:04;;;;;;;4.22;1.50;;;20.10;99.90;;;;;;6160133;23;20353;-73
2023/07/19 08:52:32;;;;;;;4.00;1.23;;;20.30;99.90;;;;;;6160220;23;20017;-73
2023/07/19 08:55:00;;;;;;;3.03;1.10;;;20.20;99.90;;;;;;6160021;23;20021;-73
2023/07/19 08:57:26;;;;;;;2.78;1.10;;;20.40;99.90;;;;;;6160149;23;20021;-73
2023/07/19 08:59:51;;;;;;;3.75;1.52;;;20.60;99.90;;;;;;6159974;23;20021;-74
2023/07/19 09:02:17;;;;;;;5.70;1.52;;;20.60;99.90;;;;;;6186781;23;20017;-72
2023/07/19 09:05:04;;;;;;;6.75;1.48;;;20.70;99.90;;;;;;6159981;23;20017;-73
2023/07/19 09:07:30;;;;;;;7.10;1.48;;;20.70;99.90;;;;;;6160122;23;20013;-73
2023/07/19 09:09:56;;;;;;;4.88;1.33;;;20.70;99.90;;;;;;6159749;23;20048;-73
2023/07/19 09:12:21;;;;;;;3.80;1.30;;;20.70;99.90;;;;;;6159829;23;20021;-73
2023/07/19 09:14:47;;;;;;;5.90;1.10;;;20.80;99.90;;;;;;6160077;23;20333;-73
2023/07/19 09:17:13;;;;;;;4.28;1.33;;;20.80;99.90;;;;;;6160134;23;20331;-73
2023/07/19 09:19:42;;;;;;;2.95;0.93;;;20.90;99.90;;;;;;6160002;23;20017;-73
2023/07/19 09:22:09;;;;;;;2.97;1.17;;;20.80;99.90;;;;;;6160055;23;20032;-73
2023/07/19 09:24:35;;;;;;;1.88;0.95;;;20.90;99.90;;;;;;6160025;23;20017;-73
2023/07/19 09:27:07;;;;;;;3.38;1.13;;;20.90;99.90;;;;;;6186080;23;20029;-73
2023/07/19 09:29:33;;;;;;;5.00;1.10;;;21.00;99.90;;;;;;6158623;23;20329;-73
2023/07/19 09:32:00;;;;;;;3.42;1.20;;;21.30;99.90;;;;;;6159810;23;20056;-73
2023/07/19 09:34:38;;;;;;;2.85;1.10;;;21.20;99.90;;;;;;6159868;23;20456;-73
2023/07/19 09:37:04;;;;;;;2.95;1.10;;;21.20;99.90;;;;;;6160044;23;20043;-73
2023/07/19 09:39:33;;;;;;;2.13;1.00;;;21.20;99.90;;;;;;6159869;23;20016;-74
2023/07/19 09:42:00;;;;;;;4.50;1.00;;;21.20;99.90;;;;;;6160123;23;20017;-73
2023/07/19 09:44:27;;;;;;;1.85;1.00;;;21.20;99.90;;;;;;6159963;23;20017;-74
2023/07/19 09:46:53;;;;;;;3.55;0.93;;;21.30;99.90;;;;;;6159887;23;20051;-73
2023/07/19 09:49:19;;;;;;;2.55;0.95;;;21.40;99.90;;;;;;6159973;23;20021;-73
2023/07/19 09:51:47;;;;;;;4.63;1.02;;;21.50;99.90;;;;;;6186527;23;20013;-73
2023/07/19 09:54:14;;;;;;;2.42;1.10;;;21.60;99.90;;;;;;6186440;23;20021;-73
2023/07/19 09:56:41;;;;;;;2.58;0.93;;;21.70;99.90;;;;;;6186421;23;20020;-73
2023/07/19 09:59:22;;;;;;;2.42;0.80;;;21.90;99.90;;;;;;6181935;23;20013;-73
2023/07/19 10:01:49;;;;;;;2.30;0.68;;;21.90;99.90;;;;;;6159910;23;20021;-73
2023/07/19 10:04:42;;;;;;;2.50;0.68;;;21.80;99.90;;;;;;6159714;23;20013;-74
2023/07/19 10:07:08;;;;;;;2.92;0.80;;;22.00;99.90;;;;;;6186256;23;20021;-73
2023/07/19 10:09:43;;;;;;;4.20;0.60;;;22.10;99.90;;;;;;6185052;23;20028;-73
2023/07/19 10:12:14;;;;;;;2.38;0.73;;;22.30;99.90;;;;;;6159688;23;20025;-73
2023/07/19 10:14:40;;;;;;;1.92;0.68;;;22.30;99.90;;;;;;6159866;23;20024;-73
2023/07/19 10:17:06;;;;;;;3.60;0.70;;;22.30;99.90;;;;;;6135124;23;20021;-73
2023/07/19 10:19:32;;;;;;;1.60;0.70;;;22.50;99.90;;;;;;6159760;23;20028;-73
2023/07/19 10:22:08;;;;;;;1.83;0.45;;;22.40;99.90;;;;;;6159615;23;20044;-73
2023/07/19 10:24:35;;;;;;;3.63;0.50;;;22.20;99.90;;;;;;6159787;23;20021;-73
2023/07/19 10:27:08;;;;;;;1.13;0.60;;;22.20;99.90;;;;;;6185973;23;20326;-73
2023/07/19 10:29:41;;;;;;;3.08;0.70;;;22.30;99.90;;;;;;6159586;23;20017;-74
2023/07/19 10:32:07;;;;;;;1.88;0.80;;;22.20;99.90;;;;;;6159560;23;20092;-73
2023/07/19 10:34:35;;;;;;;2.25;0.73;;;22.10;99.90;;;;;;6185896;23;20013;-73
2023/07/19 10:37:06;;;;;;;3.03;0.80;;;22.00;99.90;;;;;;6159546;23;20460;-73
2023/07/19 10:39:32;;;;;;;2.15;0.68;;;22.20;99.90;;;;;;6159627;23;20017;-74
2023/07/19 10:41:59;;;;;;;0.95;0.70;;;22.30;99.90;;;;;;6159438;23;20540;-73
2023/07/19 10:44:26;;;;;;;1.63;0.60;;;22.50;99.90;;;;;;6186159;23;20089;-73
2023/07/19 10:46:54;;;;;;;2.53;0.77;;;22.70;99.90;;;;;;6159541;23;20027;-74
2023/07/19 10:49:24;;;;;;;1.27;0.65;;;22.70;99.90;;;;;;6186251;23;20035;-74
2023/07/19 10:52:02;;;;;;;2.00;0.65;;;22.60;99.90;;;;;;6159435;23;20451;-73
2023/07/19 10:54:28;;;;;;;5.32;0.88;;;22.60;99.90;;;;;;6159313;23;20021;-73
2023/07/19 10:56:57;;;;;;;3.08;0.60;;;22.70;99.90;;;;;;6159566;23;20032;-74
2023/07/19 10:59:22;;;;;;;2.10;0.70;;;22.70;99.90;;;;;;6159353;23;20381;-74
2023/07/19 11:01:51;;;;;;;2.20;0.75;;;22.80;99.90;;;;;;6159522;23;20468;-74
2023/07/19 11:04:18;;;;;;;2.78;0.80;;;22.80;99.90;;;;;;6159432;23;20024;-74
2023/07/19 11:06:55;;;;;;;1.20;0.50;;;22.80;99.90;;;;;;6159315;23;20024;-73
2023/07/19 11:09:24;;;;;;;1.27;0.50;;;22.90;99.90;;;;;;6159353;23;20396;-73
2023/07/19 11:11:53;;;;;;;2.67;0.57;;;22.90;99.90;;;;;;6185610;23;20492;-74
2023/07/19 11:14:32;;;;;;;2.15;0.60;;;23.30;99.90;;;;;;6159936;23;20369;-74
2023/07/19 11:16:59;;;;;;;0.85;0.40;;;23.10;99.90;;;;;;6159292;23;20017;-74
2023/07/19 11:19:40;;;;;;;4.00;0.80;;;23.00;99.90;;;;;;6159331;23;20021;-73
2023/07/19 11:22:07;;;;;;;2.70;0.50;;;23.20;99.90;;;;;;6159434;23;20017;-73
2023/07/19 11:24:40;;;;;;;1.80;0.60;;;23.20;99.90;;;;;;6185659;23;20025;-74
2023/07/19 11:27:08;;;;;;;2.90;0.50;;;23.20;99.90;;;;;;6159415;23;20012;-74
2023/07/19 11:29:34;;;;;;;1.10;0.40;;;23.30;99.90;;;;;;6159319;23;20024;-73
2023/07/19 11:32:23;;;;;;;1.10;0.57;;;23.20;99.90;;;;;;6186205;23;20101;-73
2023/07/19 11:34:53;;;;;;;2.55;0.88;;;23.40;99.90;;;;;;6160956;23;20024;-73
2023/07/19 11:37:25;;;;;;;1.85;0.60;;;23.50;99.90;;;;;;6161606;23;20032;-73
2023/07/19 11:39:52;;;;;;;2.90;0.57;;;23.40;99.90;;;;;;6187565;23;20045;-74
2023/07/19 11:42:57;;;;;;;1.48;0.60;;;23.30;99.90;;;;;;6161086;23;20017;-73
2023/07/19 11:45:27;;;;;;;2.28;0.73;;;23.40;99.90;;;;;;6043698;23;20023;-74
2023/07/19 11:48:01;;;;;;;0.68;0.40;;;23.40;99.90;;;;;;6067670;23;20015;-73
2023/07/19 11:50:30;;;;;;;2.45;0.60;;;23.30;99.90;;;;;;6109312;23;20020;-73
2023/07/19 11:53:01;;;;;;;1.38;0.75;;;23.40;99.90;;;;;;6187638;23;20020;-73
2023/07/19 11:55:28;;;;;;;2.42;0.60;;;23.50;99.90;;;;;;6161018;23;20017;-73
2023/07/19 11:58:02;;;;;;;1.63;0.60;;;23.50;99.90;;;;;;6160968;23;20056;-74
2023/07/19 12:00:28;;;;;;;1.27;0.70;;;23.40;99.90;;;;;;6161116;23;20095;-74
2023/07/19 12:02:54;;;;;;;0.98;0.60;;;23.10;99.90;;;;;;6160799;23;20048;-73
2023/07/19 12:05:23;;;;;;;1.75;0.60;;;23.10;99.90;;;;;;6160823;23;20468;-73
2023/07/19 12:07:51;;;;;;;0.90;0.45;;;23.10;99.90;;;;;;6187612;23;20013;-73
2023/07/19 12:10:22;;;;;;;1.35;0.70;;;23.00;99.90;;;;;;6160842;23;20017;-73
2023/07/19 12:12:49;;;;;;;2.38;0.60;;;23.00;99.90;;;;;;6160903;23;20066;-74
2023/07/19 12:15:16;;;;;;;4.25;0.60;;;23.20;99.90;;;;;;6187584;23;20106;-74
2023/07/19 12:17:42;;;;;;;2.45;0.68;;;23.30;99.90;;;;;;6160801;23;20017;-74
2023/07/19 12:20:09;;;;;;;2.95;0.60;;;23.40;99.90;;;;;;6160837;23;20048;-73
2023/07/19 12:22:41;;;;;;;2.28;0.45;;;23.60;99.90;;;;;;6187407;23;20009;-74
2023/07/19 12:25:07;;;;;;;2.67;0.57;;;23.30;99.90;;;;;;6160811;23;20067;-73
2023/07/19 12:27:33;;;;;;;2.75;0.75;;;23.20;99.90;;;;;;6161182;23;20060;-74
2023/07/19 12:29:59;;;;;;;4.15;0.70;;;23.20;99.90;;;;;;6160695;23;20107;-74
2023/07/19 12:32:26;;;;;;;2.90;0.82;;;23.00;99.90;;;;;;6187191;23;20013;-74
2023/07/19 12:34:51;;;;;;;1.17;0.60;;;22.90;99.90;;;;;;6160438;23;20452;-74
2023/07/19 12:37:18;;;;;;;2.42;0.70;;;23.10;99.90;;;;;;6160510;23;20025;-74
2023/07/19 12:39:47;;;;;;;3.25;0.60;;;23.10;99.90;;;;;;6160620;23;20337;-74
2023/07/19 12:42:12;;;;;;;2.72;0.68;;;23.10;99.90;;;;;;6187337;23;20024;-74